createdAt,value
2023-11-18T00:00:18.190Z,8.20
2023-11-18T00:05:25.157Z,8.10
2023-11-18T00:10:31.798Z,8.50
2023-11-18T00:15:37.561Z,7.70
2023-11-18T00:20:44.418Z,7.20
2023-11-18T00:25:50.407Z,8.00
2023-11-18T00:30:56.539Z,6.40
2023-11-18T00:36:02.592Z,6.80
2023-11-18T00:41:10.510Z,5.90
2023-11-18T00:46:16.288Z,7.00
2023-11-18T00:51:22.052Z,7.90
2023-11-18T00:56:28.896Z,6.60
2023-11-18T01:01:34.718Z,7.20
2023-11-18T01:06:40.754Z,7.60
2023-11-18T01:12:07.208Z,7.80
2023-11-18T01:17:13.020Z,6.90
2023-11-18T01:27:25.739Z,6.20
2023-11-18T01:32:32.269Z,6.80
2023-11-18T01:37:38.091Z,6.20
2023-11-18T01:42:47.662Z,6.20
2023-11-18T01:47:53.668Z,5.10
2023-11-18T01:53:02.447Z,5.80
2023-11-18T01:58:12.471Z,6.40
2023-11-18T02:03:18.302Z,4.40
2023-11-18T02:08:26.073Z,4.70
2023-11-18T02:13:38.459Z,4.70
2023-11-18T02:18:47.987Z,5.30
2023-11-18T02:23:54.585Z,6.20
2023-11-18T02:34:17.819Z,5.10
2023-11-18T02:39:35.175Z,6.60
2023-11-18T02:44:41.823Z,6.20
2023-11-18T02:49:50.269Z,7.00
2023-11-18T02:54:56.201Z,6.10
2023-11-18T03:00:05.757Z,6.10
2023-11-18T03:05:13.226Z,5.80
2023-11-18T03:10:23.497Z,5.70
2023-11-18T03:15:29.468Z,5.70
2023-11-18T03:20:36.110Z,6.20
2023-11-18T03:25:41.891Z,6.30
2023-11-18T03:30:48.262Z,5.40
2023-11-18T03:35:54.105Z,4.70
2023-11-18T03:41:00.563Z,5.00
2023-11-18T03:51:10.958Z,3.80
2023-11-18T03:56:20.640Z,4.10
2023-11-18T04:01:28.708Z,3.50
2023-11-18T04:06:34.493Z,3.90
2023-11-18T04:11:41.855Z,3.00
2023-11-18T04:16:48.711Z,3.20
2023-11-18T04:21:54.460Z,4.30
2023-11-18T04:27:01.070Z,4.70
2023-11-18T04:37:11.515Z,4.10
2023-11-18T04:42:17.937Z,4.30
2023-11-18T04:47:23.740Z,4.20
2023-11-18T04:52:29.781Z,4.10
2023-11-18T04:57:36.253Z,4.80
2023-11-18T05:02:43.308Z,5.10
2023-11-18T05:07:49.136Z,4.70
2023-11-18T05:12:57.283Z,4.60
2023-11-18T05:18:03.131Z,4.70
2023-11-18T05:23:11.470Z,4.50
2023-11-18T05:28:18.368Z,5.10
2023-11-18T05:33:24.170Z,4.80
2023-11-18T05:38:33.810Z,3.80
2023-11-18T05:43:42.393Z,3.50
2023-11-18T05:48:49.749Z,4.40
2023-11-18T05:53:56.538Z,4.50
2023-11-18T05:59:04.700Z,3.20
2023-11-18T06:04:11.200Z,3.20
2023-11-18T06:09:22.464Z,3.10
2023-11-18T06:14:28.991Z,4.90
2023-11-18T06:19:34.996Z,2.90
2023-11-18T06:24:40.800Z,2.20
2023-11-18T06:29:46.904Z,2.30
2023-11-18T06:34:52.701Z,2.90
2023-11-18T06:39:58.472Z,2.60
2023-11-18T06:45:07.206Z,3.10
2023-11-18T06:50:15.585Z,2.80
2023-11-18T06:55:21.586Z,3.40
2023-11-18T07:00:29.629Z,3.30
2023-11-18T07:05:35.570Z,3.90
2023-11-18T07:10:42.601Z,5.00
2023-11-18T07:15:48.412Z,5.00
2023-11-18T07:20:54.238Z,5.20
2023-11-18T07:26:00.109Z,5.30
2023-11-18T07:31:06.650Z,6.00
2023-11-18T07:36:13.148Z,6.70
2023-11-18T07:46:32.588Z,7.80
2023-11-18T07:51:38.775Z,8.40
2023-11-18T07:56:49.405Z,10.40
2023-11-18T08:01:55.782Z,9.00
2023-11-18T08:07:01.635Z,13.10
2023-11-18T08:12:10.561Z,9.40
2023-11-18T08:17:16.394Z,10.40
2023-11-18T08:22:24.438Z,9.20
2023-11-18T08:27:30.534Z,7.80
2023-11-18T08:32:40.165Z,7.80
2023-11-18T08:37:48.971Z,9.50
2023-11-18T08:42:57.425Z,7.00
2023-11-18T08:48:08.564Z,8.60
2023-11-18T08:53:20.005Z,8.20
2023-11-18T08:58:29.644Z,7.70
2023-11-18T09:03:44.901Z,7.20
2023-11-18T09:08:54.834Z,7.80
2023-11-18T09:14:02.616Z,8.40
2023-11-18T09:19:09.642Z,6.20
2023-11-18T09:24:16.489Z,5.60
2023-11-18T09:29:25.364Z,5.60
2023-11-18T09:34:34.851Z,6.00
2023-11-18T09:39:47.375Z,6.40
2023-11-18T09:44:55.065Z,6.50
2023-11-18T09:50:04.931Z,5.90
2023-11-18T09:55:21.174Z,7.40
2023-11-18T10:00:34.295Z,6.50
2023-11-18T10:05:43.358Z,5.70
2023-11-18T10:10:50.831Z,6.20
2023-11-18T10:15:58.941Z,5.20
2023-11-18T10:21:09.634Z,5.00
2023-11-18T10:26:16.293Z,4.30
2023-11-18T10:31:25.560Z,6.20
2023-11-18T10:36:34.694Z,5.50
2023-11-18T10:41:49.375Z,4.50
2023-11-18T10:47:00.470Z,5.20
2023-11-18T10:52:10.172Z,4.20
2023-11-18T10:57:16.388Z,4.10
2023-11-18T11:02:25.801Z,4.30
2023-11-18T11:07:35.663Z,5.00
2023-11-18T11:12:53.438Z,6.60
2023-11-18T11:18:10.405Z,5.80
2023-11-18T11:23:24.285Z,5.80
2023-11-18T11:28:45.441Z,8.70
2023-11-18T11:34:01.060Z,14.80
2023-11-18T11:39:12.166Z,7.50
2023-11-18T11:44:20.833Z,11.10
2023-11-18T11:49:31.388Z,10.00
2023-11-18T11:54:46.345Z,7.40
2023-11-18T12:00:16.592Z,9.70
2023-11-18T12:05:27.913Z,8.70
2023-11-18T12:10:37.530Z,9.00
2023-11-18T12:15:59.010Z,7.70
2023-11-18T12:21:05.729Z,5.60
2023-11-18T12:26:45.276Z,4.30
2023-11-18T12:31:52.020Z,4.50
2023-11-18T12:37:49.107Z,4.80
2023-11-18T12:43:07.870Z,5.50
2023-11-18T12:48:19.572Z,5.40
2023-11-18T12:53:27.757Z,5.50
2023-11-18T12:58:34.939Z,5.40
2023-11-18T13:03:42.136Z,5.90
2023-11-18T13:08:48.115Z,5.00
2023-11-18T13:13:55.737Z,6.90
2023-11-18T13:19:01.599Z,6.20
2023-11-18T13:24:09.676Z,7.80
2023-11-18T13:29:17.353Z,6.50
2023-11-18T13:34:23.545Z,5.80
2023-11-18T13:39:29.764Z,6.90
2023-11-18T13:44:40.733Z,6.40
2023-11-18T13:49:48.729Z,6.50
2023-11-18T13:54:57.436Z,6.80
2023-11-18T14:00:07.893Z,6.50
2023-11-18T14:05:22.945Z,6.40
2023-11-18T14:10:29.516Z,9.70
2023-11-18T14:20:41.727Z,15.50
2023-11-18T14:25:47.848Z,10.50
2023-11-18T14:30:53.949Z,12.30
2023-11-18T14:35:59.720Z,16.70
2023-11-18T14:41:05.878Z,13.00
2023-11-18T14:46:11.942Z,16.40
2023-11-18T14:51:18.455Z,15.50
2023-11-18T14:56:24.593Z,11.00
2023-11-18T15:01:30.566Z,8.70
2023-11-18T15:06:36.339Z,7.40
2023-11-18T15:11:42.097Z,8.90
2023-11-18T15:16:48.231Z,10.20
2023-11-18T15:21:53.971Z,11.50
2023-11-18T15:27:01.366Z,11.80
2023-11-18T15:32:09.676Z,11.90
2023-11-18T15:37:15.667Z,10.40
2023-11-18T15:42:21.460Z,10.50
2023-11-18T15:47:27.294Z,10.60
2023-11-18T15:52:35.612Z,12.20
2023-11-18T15:57:43.518Z,12.60
2023-11-18T16:02:52.168Z,11.40
2023-11-18T16:07:59.739Z,9.00
2023-11-18T16:13:05.509Z,10.20
2023-11-18T16:18:11.331Z,10.70
2023-11-18T16:23:17.099Z,14.80
2023-11-18T16:28:22.842Z,10.70
2023-11-18T16:33:28.612Z,10.30
2023-11-18T16:38:34.492Z,12.80
2023-11-18T16:43:41.144Z,12.10
2023-11-18T16:53:53.524Z,11.90
2023-11-18T16:59:00.972Z,24.30
2023-11-18T17:04:08.773Z,18.40
2023-11-18T17:09:14.818Z,16.10
2023-11-18T17:14:20.716Z,13.90
2023-11-18T17:19:27.455Z,13.40
2023-11-18T17:24:34.009Z,12.60
2023-11-18T17:29:39.729Z,20.60
2023-11-18T17:34:45.564Z,11.50
2023-11-18T17:39:51.322Z,10.50
2023-11-18T17:44:57.587Z,10.50
2023-11-18T17:50:09.467Z,10.90
2023-11-18T17:55:16.096Z,13.50
2023-11-18T18:00:24.803Z,14.30
2023-11-18T18:05:31.237Z,13.90
2023-11-18T18:10:37.212Z,15.40
2023-11-18T18:15:43.203Z,31.40
2023-11-18T18:20:50.604Z,23.40
2023-11-18T18:25:56.726Z,16.00
2023-11-18T18:31:02.631Z,20.00
2023-11-18T18:36:11.299Z,15.60
2023-11-18T18:41:17.019Z,22.60
2023-11-18T18:46:23.415Z,42.30
2023-11-18T18:51:29.234Z,22.60
2023-11-18T18:56:35.245Z,18.30
2023-11-18T19:01:41.186Z,26.40
2023-11-18T19:06:47.920Z,23.10
2023-11-18T19:16:58.523Z,13.60
2023-11-18T19:22:07.510Z,14.00
2023-11-18T19:27:15.596Z,17.30
2023-11-18T19:32:21.349Z,13.20
2023-11-18T19:37:27.280Z,17.60
2023-11-18T19:42:33.729Z,13.80
2023-11-18T19:47:40.015Z,12.70
2023-11-18T19:52:46.242Z,11.70
2023-11-18T19:57:51.942Z,11.90
2023-11-18T20:02:57.920Z,16.10
2023-11-18T20:08:03.844Z,13.80
2023-11-18T20:13:09.677Z,13.60
2023-11-18T20:18:15.529Z,11.70
2023-11-18T20:23:22.811Z,13.30
2023-11-18T20:28:28.659Z,15.70
2023-11-18T20:33:42.399Z,13.00
2023-11-18T20:38:48.936Z,9.70
2023-11-18T20:43:54.663Z,7.70
2023-11-18T20:49:00.531Z,9.90
2023-11-18T20:54:08.586Z,6.80
2023-11-18T20:59:14.481Z,7.00
2023-11-18T21:04:21.185Z,8.30
2023-11-18T21:09:28.295Z,15.60
2023-11-18T21:14:35.121Z,15.70
2023-11-18T21:19:41.789Z,11.00
2023-11-18T21:29:51.971Z,11.70
2023-11-18T21:34:57.972Z,10.00
2023-11-18T21:40:06.154Z,9.80
2023-11-18T21:45:15.183Z,9.50
2023-11-18T21:50:22.436Z,10.60
2023-11-18T21:55:30.506Z,8.90
2023-11-18T22:00:45.048Z,9.30
2023-11-18T22:05:51.985Z,9.00
2023-11-18T22:10:59.531Z,10.40
2023-11-18T22:16:06.282Z,9.70
2023-11-18T22:26:19.370Z,6.00
2023-11-18T22:31:27.182Z,6.10
2023-11-18T22:36:33.540Z,6.40
2023-11-18T22:41:39.440Z,7.30
2023-11-18T22:46:45.342Z,7.00
2023-11-18T22:51:52.235Z,7.90
2023-11-18T23:02:05.045Z,6.50
2023-11-18T23:07:11.093Z,7.90
2023-11-18T23:12:16.817Z,8.90
2023-11-18T23:17:24.652Z,14.90
2023-11-18T23:22:30.462Z,11.30
2023-11-18T23:27:38.081Z,9.10
2023-11-18T23:32:44.211Z,8.20
2023-11-18T23:37:52.430Z,8.60
2023-11-18T23:42:58.640Z,13.60
2023-11-18T23:48:04.671Z,17.00
2023-11-18T23:53:11.116Z,17.50
2023-11-18T23:58:16.951Z,16.00
